Time;durP1;ratioP1;P1;durP2;ratioP2;P2;SDS_P1;SDS_P2;PMS_P1;PMS_P2;Temp;Humidity;BMP_temperature;BMP_pressure;BME280_temperature;BME280_humidity;BME280_pressure;Samples;Min_cycle;Max_cycle;Signal;HPM_P1;HPM_P2
2022/08/12 00:44:40;;;;;;;5.30;2.80;;;23.00;92.80;;;;;;5062574;28;20650;-69
2022/08/12 00:47:10;;;;;;;4.53;2.70;;;22.90;93.00;;;;;;5062059;28;20245;-69
2022/08/12 00:49:52;;;;;;;5.15;2.90;;;22.80;93.30;;;;;;5066857;28;20292;-68
2022/08/12 00:52:20;;;;;;;4.85;2.63;;;22.40;93.50;;;;;;5068665;28;20583;-69
2022/08/12 00:54:49;;;;;;;3.30;2.67;;;22.20;94.10;;;;;;5068200;28;20194;-68
2022/08/12 00:57:19;;;;;;;3.85;3.17;;;22.20;94.10;;;;;;5068453;28;20235;-68
2022/08/12 00:59:52;;;;;;;3.65;2.60;;;22.00;94.30;;;;;;5050856;28;20198;-68
2022/08/12 01:02:26;;;;;;;3.03;2.42;;;22.00;94.30;;;;;;5068413;28;20214;-69
2022/08/12 01:13:24;;;;;;;3.47;3.10;;;21.90;94.50;;;;;;5050883;28;20210;-68
2022/08/12 01:15:56;;;;;;;3.13;2.55;;;22.00;94.40;;;;;;5050223;28;20219;-69
2022/08/12 01:18:26;;;;;;;5.13;2.72;;;22.00;94.30;;;;;;5051109;28;20195;-68
2022/08/12 01:21:10;;;;;;;3.35;2.70;;;22.10;94.10;;;;;;5050826;28;20198;-68
2022/08/12 01:23:46;;;;;;;4.28;2.65;;;22.10;94.10;;;;;;5050527;28;20219;-68
2022/08/12 01:26:22;;;;;;;3.17;2.78;;;22.20;94.20;;;;;;5042972;28;20721;-68
2022/08/12 01:28:53;;;;;;;2.85;2.33;;;22.00;94.40;;;;;;5050075;28;20191;-69
2022/08/12 01:31:22;;;;;;;4.72;2.50;;;22.00;94.20;;;;;;5050668;28;20278;-68
2022/08/12 01:34:02;;;;;;;4.38;2.55;;;22.00;94.50;;;;;;5050517;28;20249;-68
2022/08/12 01:36:55;;;;;;;4.05;2.95;;;22.00;94.60;;;;;;5055387;28;20242;-68
2022/08/12 01:39:29;;;;;;;6.53;3.05;;;22.10;93.90;;;;;;5050530;28;20230;-68
2022/08/12 01:42:01;;;;;;;3.50;2.70;;;22.40;93.50;;;;;;5050180;28;20244;-69
2022/08/12 01:44:29;;;;;;;3.50;2.53;;;22.40;93.50;;;;;;5050088;28;20308;-69
2022/08/12 01:47:14;;;;;;;3.28;2.50;;;22.40;93.40;;;;;;5050096;28;20233;-69
2022/08/12 01:49:56;;;;;;;3.72;2.55;;;22.30;93.70;;;;;;5050304;28;20195;-68
2022/08/12 01:52:43;;;;;;;3.85;2.50;;;22.10;93.80;;;;;;5032440;28;20202;-69
2022/08/12 01:55:14;;;;;;;3.22;2.85;;;21.90;94.20;;;;;;5049369;28;20210;-68
2022/08/12 01:57:58;;;;;;;4.20;2.70;;;22.00;94.20;;;;;;5050229;28;20198;-69
2022/08/12 02:00:43;;;;;;;5.05;3.10;;;22.10;94.10;;;;;;5050106;28;20194;-68
2022/08/12 02:13:01;;;;;;;6.40;2.53;;;22.30;94.00;;;;;;5052201;28;20248;-69
2022/08/12 02:15:45;;;;;;;3.28;2.80;;;22.20;94.30;;;;;;5048953;28;20215;-67
2022/08/12 02:18:30;;;;;;;3.35;2.90;;;22.10;94.30;;;;;;5049454;28;20210;-69
2022/08/12 02:21:05;;;;;;;6.68;3.08;;;22.20;94.30;;;;;;5049819;28;20257;-68
2022/08/12 02:23:34;;;;;;;7.00;3.13;;;22.30;94.20;;;;;;5049865;28;20249;-68
2022/08/12 02:26:07;;;;;;;4.95;2.90;;;22.30;94.20;;;;;;5049255;28;20225;-69
2022/08/12 02:28:36;;;;;;;3.20;2.88;;;22.30;94.20;;;;;;5049572;28;20210;-68
2022/08/12 02:31:07;;;;;;;5.75;2.58;;;22.10;94.50;;;;;;5049947;28;20198;-69
2022/08/12 02:33:36;;;;;;;3.28;2.88;;;21.90;94.60;;;;;;5049865;28;20203;-68
2022/08/12 02:36:04;;;;;;;3.38;2.63;;;21.80;94.80;;;;;;5049392;28;20215;-69
2022/08/12 02:38:31;;;;;;;5.40;2.67;;;21.70;94.90;;;;;;5049944;28;20199;-68
2022/08/12 02:41:02;;;;;;;6.80;2.88;;;21.60;95.00;;;;;;5049700;28;20195;-67
2022/08/12 02:43:49;;;;;;;6.05;2.70;;;21.80;95.00;;;;;;5049713;28;20241;-69
2022/08/12 02:46:26;;;;;;;6.63;3.08;;;21.80;94.80;;;;;;5049539;28;20218;-69
2022/08/12 02:49:21;;;;;;;8.55;3.10;;;21.80;94.80;;;;;;5049983;28;20194;-68
2022/08/12 02:51:48;;;;;;;3.80;2.60;;;21.80;94.90;;;;;;5049603;28;20256;-68
2022/08/12 02:54:16;;;;;;;4.43;2.60;;;21.90;94.70;;;;;;5049907;28;20198;-68
2022/08/12 02:56:42;;;;;;;4.93;3.00;;;21.90;94.80;;;;;;5052732;28;20310;-67
2022/08/12 02:59:20;;;;;;;3.67;2.55;;;21.90;94.70;;;;;;5049538;28;20203;-68
2022/08/12 03:01:49;;;;;;;3.35;2.63;;;21.90;94.80;;;;;;5049419;28;20195;-68
2022/08/12 03:04:23;;;;;;;4.28;2.63;;;21.90;94.80;;;;;;5049001;28;20215;-68
2022/08/12 03:07:20;;;;;;;9.40;2.88;;;21.90;94.70;;;;;;5031458;28;20759;-68
2022/08/12 03:10:04;;;;;;;2.63;2.40;;;21.90;94.70;;;;;;5049596;28;20580;-68
2022/08/12 03:12:43;;;;;;;2.80;2.50;;;21.90;94.90;;;;;;5049354;28;20205;-68
2022/08/12 03:15:19;;;;;;;4.53;2.63;;;21.80;95.00;;;;;;5049129;28;20268;-68
2022/08/12 03:18:12;;;;;;;3.83;2.50;;;21.70;95.20;;;;;;5031638;28;20693;-68
2022/08/12 03:20:55;;;;;;;4.65;2.50;;;21.60;95.20;;;;;;5052651;28;20202;-68
2022/08/12 03:23:22;;;;;;;2.90;2.60;;;21.50;95.50;;;;;;5053014;28;20226;-68
2022/08/12 03:26:00;;;;;;;4.50;2.87;;;21.40;95.50;;;;;;5036007;28;20249;-66
2022/08/12 03:31:20;;;;;;;3.33;2.70;;;21.30;95.80;;;;;;5070975;28;20285;-68
2022/08/12 03:33:48;;;;;;;3.03;2.73;;;21.30;96.00;;;;;;5072881;28;20252;-68
2022/08/12 03:36:33;;;;;;;3.63;2.60;;;21.20;96.10;;;;;;5072557;28;20415;-68
2022/08/12 03:41:53;;;;;;;4.10;2.50;;;21.20;96.10;;;;;;5052353;28;20549;-68
2022/08/12 04:01:56;;;;;;;3.70;2.93;;;20.80;96.90;;;;;;5052449;28;20203;-68
2022/08/12 04:04:33;;;;;;;3.53;2.93;;;20.80;96.90;;;;;;5051963;28;20211;-68
2022/08/12 04:07:06;;;;;;;5.47;2.73;;;20.80;97.00;;;;;;5052521;28;20574;-68
2022/08/12 04:09:36;;;;;;;4.33;2.93;;;20.80;97.00;;;;;;5052244;28;20194;-68
2022/08/12 04:14:53;;;;;;;4.17;2.80;;;20.70;97.30;;;;;;5051541;28;20219;-69
2022/08/12 04:17:20;;;;;;;4.67;2.67;;;20.70;97.20;;;;;;5051778;28;20199;-68
2022/08/12 04:19:48;;;;;;;3.60;2.70;;;20.70;97.40;;;;;;5052352;28;20222;-66
2022/08/12 04:22:15;;;;;;;5.87;2.80;;;20.60;98.00;;;;;;5052230;28;20677;-68
2022/08/12 04:24:43;;;;;;;3.17;2.57;;;20.60;98.10;;;;;;5056443;28;20685;-68
2022/08/12 04:27:16;;;;;;;7.10;2.60;;;20.40;98.30;;;;;;5064443;28;20647;-68
2022/08/12 04:29:43;;;;;;;5.23;2.93;;;20.10;98.90;;;;;;5052004;28;20639;-68
2022/08/12 04:32:31;;;;;;;4.23;2.80;;;20.00;98.90;;;;;;5051799;28;20221;-68
2022/08/12 04:34:57;;;;;;;4.03;2.63;;;19.80;99.10;;;;;;5052617;28;20306;-69
2022/08/12 04:37:24;;;;;;;3.40;2.77;;;19.60;99.40;;;;;;5052743;28;20195;-68
2022/08/12 04:39:53;;;;;;;4.00;2.60;;;19.50;99.90;;;;;;5062705;28;20680;-69
2022/08/12 04:42:20;;;;;;;3.50;2.53;;;19.30;99.90;;;;;;5072817;28;20201;-68
2022/08/12 04:44:47;;;;;;;5.20;2.90;;;19.30;99.90;;;;;;5071127;28;20214;-67
2022/08/12 04:47:15;;;;;;;4.23;2.63;;;19.50;99.90;;;;;;5055209;28;20191;-68
2022/08/12 04:49:44;;;;;;;4.23;2.90;;;19.40;99.90;;;;;;5052870;28;20195;-68
2022/08/12 04:52:11;;;;;;;3.00;2.53;;;19.40;99.90;;;;;;5052105;28;20198;-69
2022/08/12 04:54:38;;;;;;;4.43;3.27;;;19.20;99.90;;;;;;5053652;28;20222;-68
2022/08/12 04:57:08;;;;;;;5.03;2.83;;;19.20;99.90;;;;;;5051634;28;20198;-68
2022/08/12 04:59:34;;;;;;;4.67;2.87;;;19.20;99.90;;;;;;5051675;28;20206;-68
2022/08/12 05:02:19;;;;;;;3.13;2.83;;;19.20;99.90;;;;;;5051218;28;20198;-68
2022/08/12 05:04:51;;;;;;;4.33;2.90;;;19.30;99.90;;;;;;5050647;28;20254;-68
2022/08/12 05:07:19;;;;;;;3.33;2.90;;;19.30;99.90;;;;;;5051414;28;20195;-67
2022/08/12 05:09:46;;;;;;;5.43;2.73;;;19.30;99.90;;;;;;5051294;28;20195;-68
2022/08/12 05:12:32;;;;;;;5.00;3.37;;;19.30;99.90;;;;;;5051002;28;20187;-68
2022/08/12 05:14:59;;;;;;;4.10;2.80;;;19.30;99.90;;;;;;5050416;28;20631;-68
2022/08/12 05:17:26;;;;;;;5.60;2.80;;;19.40;99.90;;;;;;5050629;28;20198;-68
2022/08/12 05:19:54;;;;;;;5.60;3.90;;;19.40;99.90;;;;;;5050791;28;20199;-67
2022/08/12 05:22:25;;;;;;;3.70;3.07;;;19.40;99.90;;;;;;5050769;28;20187;-67
2022/08/12 05:24:52;;;;;;;4.27;3.10;;;19.50;99.90;;;;;;5032610;28;20230;-68
2022/08/12 05:27:21;;;;;;;5.30;3.00;;;19.70;99.90;;;;;;5050613;28;20191;-69
2022/08/12 05:29:48;;;;;;;7.67;3.50;;;19.80;99.90;;;;;;5054957;28;20666;-68
2022/08/12 05:32:35;;;;;;;5.20;2.90;;;20.00;99.90;;;;;;5050615;28;20214;-67
2022/08/12 05:35:05;;;;;;;5.10;3.30;;;20.30;99.90;;;;;;5050449;28;20226;-68
2022/08/12 05:37:33;;;;;;;6.67;3.10;;;20.50;99.90;;;;;;5053787;28;20201;-69
2022/08/12 05:40:02;;;;;;;6.53;3.53;;;20.60;99.90;;;;;;5053730;28;20281;-67
2022/08/12 05:42:34;;;;;;;6.83;3.23;;;20.80;99.80;;;;;;5058073;28;20202;-68
2022/08/12 05:45:00;;;;;;;9.93;3.17;;;21.00;99.10;;;;;;5049858;28;20706;-68
2022/08/12 05:47:27;;;;;;;6.70;3.13;;;21.30;99.10;;;;;;5050313;28;20221;-68
2022/08/12 05:50:14;;;;;;;3.53;2.80;;;21.50;98.80;;;;;;5059139;28;20194;-68
2022/08/12 05:52:41;;;;;;;7.97;2.95;;;21.80;98.30;;;;;;5070231;28;20197;-68
2022/08/12 05:55:09;;;;;;;3.88;2.85;;;22.00;98.00;;;;;;5065185;28;20240;-69
2022/08/12 05:57:37;;;;;;;6.30;2.60;;;22.20;97.70;;;;;;5035987;28;20195;-68
2022/08/12 06:00:05;;;;;;;3.67;2.90;;;22.50;97.50;;;;;;5050313;28;20252;-68
2022/08/12 06:02:33;;;;;;;7.70;2.97;;;22.50;97.30;;;;;;5049656;28;20234;-68
2022/08/12 06:05:01;;;;;;;5.80;2.95;;;22.50;97.50;;;;;;5049882;28;20214;-68
2022/08/12 06:07:28;;;;;;;8.25;2.75;;;22.30;97.50;;;;;;5050297;28;20191;-67
2022/08/12 06:10:18;;;;;;;3.10;2.60;;;22.30;97.60;;;;;;5050408;28;20256;-69
2022/08/12 06:13:03;;;;;;;8.32;3.63;;;22.30;97.30;;;;;;5064569;28;20316;-69
2022/08/12 06:15:32;;;;;;;4.90;2.83;;;22.40;97.30;;;;;;5069789;28;20224;-69
2022/08/12 06:18:07;;;;;;;4.53;2.58;;;22.50;96.80;;;;;;5070423;28;20206;-68
2022/08/12 06:20:42;;;;;;;3.53;2.70;;;22.60;96.90;;;;;;5049715;28;20277;-69
2022/08/12 06:23:10;;;;;;;5.55;2.78;;;22.80;96.60;;;;;;5050175;28;20226;-68
2022/08/12 06:25:36;;;;;;;6.82;2.90;;;22.80;96.60;;;;;;5049461;28;20214;-69
2022/08/12 06:28:14;;;;;;;6.35;2.90;;;22.80;96.80;;;;;;5049730;28;20195;-68
2022/08/12 06:30:41;;;;;;;8.10;2.97;;;22.80;96.60;;;;;;5049950;28;20190;-67
2022/08/12 06:33:07;;;;;;;3.53;2.53;;;22.90;96.30;;;;;;5049987;28;20195;-66
2022/08/12 06:35:51;;;;;;;6.25;2.95;;;23.00;95.70;;;;;;5049702;28;20222;-69
2022/08/12 06:38:25;;;;;;;5.60;2.67;;;23.20;95.50;;;;;;5050035;28;20726;-68
2022/08/12 06:43:45;;;;;;;6.25;3.10;;;23.40;95.40;;;;;;5049772;28;20214;-68
2022/08/12 06:46:31;;;;;;;5.20;2.63;;;23.50;95.40;;;;;;5037255;28;20222;-66
2022/08/12 06:48:58;;;;;;;5.07;2.65;;;23.60;95.10;;;;;;5050054;28;20194;-68
2022/08/12 06:51:30;;;;;;;10.02;3.10;;;23.60;94.70;;;;;;5049483;28;20191;-68
2022/08/12 06:53:59;;;;;;;6.72;2.88;;;23.70;94.60;;;;;;5050288;28;20195;-69
2022/08/12 06:56:26;;;;;;;3.40;2.65;;;23.90;94.30;;;;;;5053172;28;20712;-67
2022/08/12 06:59:14;;;;;;;6.45;2.75;;;23.90;94.10;;;;;;5053455;28;20622;-69
2022/08/12 07:01:41;;;;;;;4.93;2.78;;;24.00;94.10;;;;;;5035532;28;20191;-68
2022/08/12 07:04:17;;;;;;;7.53;2.90;;;24.20;93.90;;;;;;5053349;28;20265;-68
2022/08/12 07:07:04;;;;;;;9.55;2.30;;;24.50;93.70;;;;;;5053263;28;20614;-68
2022/08/12 07:09:31;;;;;;;3.25;2.50;;;24.80;93.40;;;;;;5053272;28;20511;-67
2022/08/12 07:12:18;;;;;;;4.25;2.17;;;25.00;93.00;;;;;;5053400;28;20198;-69
2022/08/12 07:14:49;;;;;;;4.85;2.50;;;25.60;92.70;;;;;;5052728;28;20191;-69
2022/08/12 07:17:16;;;;;;;7.15;2.40;;;26.00;92.30;;;;;;5053059;28;20665;-68
2022/08/12 07:19:43;;;;;;;5.10;2.42;;;26.50;91.70;;;;;;5052856;28;20717;-68
2022/08/12 07:22:12;;;;;;;4.75;2.35;;;26.70;91.40;;;;;;5053386;28;20227;-69
2022/08/12 07:24:41;;;;;;;5.45;2.33;;;26.60;91.20;;;;;;5052540;28;20211;-69
2022/08/12 07:27:07;;;;;;;2.90;2.20;;;26.80;91.10;;;;;;5053720;28;20191;-68
2022/08/12 07:29:34;;;;;;;3.78;2.83;;;26.60;91.10;;;;;;5053217;28;20191;-68
2022/08/12 07:32:23;;;;;;;4.13;2.40;;;26.60;91.40;;;;;;5052938;28;20199;-68
2022/08/12 07:34:53;;;;;;;4.30;2.28;;;26.70;90.90;;;;;;5052388;28;20618;-68
2022/08/12 07:37:20;;;;;;;4.68;2.10;;;26.80;91.10;;;;;;5053107;28;20195;-68
2022/08/12 07:39:46;;;;;;;3.83;2.33;;;26.90;91.10;;;;;;5053183;28;20199;-68
2022/08/12 07:42:24;;;;;;;8.18;2.53;;;26.80;90.90;;;;;;5052845;28;20692;-68
2022/08/12 07:44:52;;;;;;;3.45;2.10;;;26.60;91.00;;;;;;5052515;28;20234;-68
2022/08/12 07:47:18;;;;;;;4.78;2.05;;;26.70;91.30;;;;;;5052826;28;20662;-69
2022/08/12 07:49:45;;;;;;;3.15;2.20;;;26.80;90.90;;;;;;5053054;28;20191;-68
2022/08/12 07:52:37;;;;;;;4.53;2.30;;;26.80;90.80;;;;;;5052588;28;20191;-69
2022/08/12 07:55:04;;;;;;;6.47;2.53;;;26.90;90.80;;;;;;5052679;28;20269;-67
2022/08/12 07:57:32;;;;;;;2.88;2.20;;;26.80;90.80;;;;;;5070826;28;20209;-69
2022/08/12 08:00:04;;;;;;;3.03;2.20;;;26.70;90.90;;;;;;5069796;28;20197;-69
2022/08/12 08:02:32;;;;;;;4.70;2.80;;;26.70;90.90;;;;;;5052399;28;20249;-68
2022/08/12 08:04:59;;;;;;;6.07;2.28;;;26.30;91.10;;;;;;5051656;28;20229;-68
2022/08/12 08:07:28;;;;;;;4.65;2.60;;;26.40;91.30;;;;;;5051572;28;20274;-68
2022/08/12 08:10:01;;;;;;;3.58;2.42;;;26.50;91.20;;;;;;5052019;28;20195;-69
2022/08/12 08:15:14;;;;;;;6.75;2.38;;;26.40;91.40;;;;;;5051876;28;20211;-68
2022/08/12 08:18:00;;;;;;;4.43;2.55;;;26.50;91.60;;;;;;5051786;28;20434;-68
2022/08/12 08:20:32;;;;;;;3.47;2.40;;;26.40;91.30;;;;;;5051797;28;20570;-69
2022/08/12 08:23:06;;;;;;;4.38;2.50;;;26.40;91.40;;;;;;5052004;28;20696;-68
2022/08/12 08:25:34;;;;;;;2.95;2.10;;;26.40;91.30;;;;;;5051647;28;20237;-69
2022/08/12 08:28:20;;;;;;;4.80;2.90;;;26.50;91.40;;;;;;5051818;28;20191;-68
2022/08/12 08:30:48;;;;;;;4.05;2.38;;;26.50;91.30;;;;;;5051702;28;20198;-68
2022/08/12 08:33:16;;;;;;;3.65;2.05;;;26.70;91.40;;;;;;5051630;28;20225;-69
2022/08/12 08:36:05;;;;;;;3.50;2.30;;;26.80;91.20;;;;;;5051404;28;20643;-68
2022/08/12 08:38:43;;;;;;;3.42;2.40;;;26.90;90.60;;;;;;5051767;28;20205;-68
2022/08/12 08:44:30;;;;;;;4.95;2.60;;;26.90;90.90;;;;;;5057274;28;20271;-68
2022/08/12 08:47:00;;;;;;;4.18;2.20;;;26.80;90.80;;;;;;5051491;28;20210;-69
2022/08/12 08:49:26;;;;;;;4.80;2.25;;;26.80;90.50;;;;;;5051375;28;20187;-69
2022/08/12 08:51:53;;;;;;;5.30;2.33;;;27.00;90.40;;;;;;5034335;28;20256;-68
2022/08/12 08:54:19;;;;;;;2.92;2.30;;;27.20;90.40;;;;;;5051151;28;20474;-68
2022/08/12 08:56:49;;;;;;;3.33;2.17;;;27.30;90.10;;;;;;5050943;28;20247;-68
2022/08/12 08:59:21;;;;;;;3.03;2.20;;;27.40;90.20;;;;;;5051457;28;20634;-68
2022/08/12 09:01:48;;;;;;;6.60;2.15;;;27.40;90.10;;;;;;5051286;28;20556;-67
2022/08/12 09:04:15;;;;;;;5.45;2.30;;;27.40;89.60;;;;;;5051025;28;20210;-66
2022/08/12 09:07:03;;;;;;;7.85;2.40;;;27.40;89.10;;;;;;5051454;28;20202;-67
2022/08/12 09:09:50;;;;;;;7.60;2.20;;;27.40;89.30;;;;;;5051013;28;20245;-69
2022/08/12 09:15:27;;;;;;;8.40;2.63;;;27.80;89.00;;;;;;5050568;28;20725;-69
2022/08/12 09:18:04;;;;;;;5.40;2.20;;;27.90;89.20;;;;;;5050829;28;20232;-69
2022/08/12 09:20:34;;;;;;;2.70;2.20;;;28.00;87.80;;;;;;5050912;28;20227;-69
2022/08/12 09:23:10;;;;;;;4.43;2.20;;;27.90;87.30;;;;;;5051162;28;20265;-69
2022/08/12 09:25:57;;;;;;;5.20;2.13;;;28.00;87.40;;;;;;5050633;28;20319;-68
2022/08/12 09:28:29;;;;;;;2.78;1.80;;;28.00;86.60;;;;;;5051003;28;20195;-69
2022/08/12 09:31:10;;;;;;;6.45;2.20;;;28.20;86.40;;;;;;5055975;28;20728;-69
2022/08/12 09:33:57;;;;;;;3.75;2.25;;;28.20;86.60;;;;;;5050727;28;20229;-69
2022/08/12 09:36:43;;;;;;;3.40;2.05;;;28.30;87.30;;;;;;5050451;28;20214;-68
2022/08/12 09:39:31;;;;;;;4.00;1.98;;;28.30;86.80;;;;;;5050456;28;20187;-67
2022/08/12 09:45:23;;;;;;;2.53;2.00;;;28.40;86.90;;;;;;5050032;28;20219;-69
2022/08/12 09:48:15;;;;;;;4.60;2.05;;;28.70;86.30;;;;;;5051140;28;20252;-69
2022/08/12 09:50:49;;;;;;;3.53;2.20;;;28.70;84.90;;;;;;5050289;28;20194;-69
2022/08/12 09:53:23;;;;;;;3.22;2.05;;;28.40;85.20;;;;;;5050509;28;20252;-69
2022/08/12 09:56:05;;;;;;;7.38;2.10;;;28.40;85.40;;;;;;5049999;28;20253;-70
2022/08/12 09:58:52;;;;;;;4.97;2.20;;;28.30;85.80;;;;;;5049975;28;20217;-69
2022/08/12 10:01:27;;;;;;;5.40;2.25;;;28.30;85.70;;;;;;5050376;28;20190;-69
2022/08/12 10:04:14;;;;;;;3.42;2.10;;;28.20;86.40;;;;;;5050186;28;20218;-69
2022/08/12 10:06:45;;;;;;;2.55;2.22;;;28.40;86.00;;;;;;5049634;28;20565;-69
2022/08/12 10:09:21;;;;;;;3.78;2.20;;;28.60;86.30;;;;;;5033495;28;20401;-69
2022/08/12 10:14:43;;;;;;;3.78;1.92;;;29.20;85.10;;;;;;5050739;28;20202;-70
2022/08/12 10:17:22;;;;;;;2.97;2.28;;;29.30;84.20;;;;;;5049687;28;20225;-68
2022/08/12 10:19:50;;;;;;;4.93;2.30;;;29.10;84.60;;;;;;5050057;28;20201;-69
2022/08/12 10:22:19;;;;;;;2.80;2.15;;;28.70;85.60;;;;;;5050251;28;20194;-69
2022/08/12 10:30:58;;;;;;;5.50;2.10;;;28.80;85.20;;;;;;5049842;28;20190;-69
2022/08/12 10:33:29;;;;;;;4.15;2.10;;;28.90;84.90;;;;;;5049387;28;20187;-70
2022/08/12 10:35:59;;;;;;;4.43;2.10;;;29.00;84.40;;;;;;5049509;28;20294;-69
2022/08/12 10:38:25;;;;;;;2.13;1.92;;;29.20;83.80;;;;;;5050135;28;20206;-69
2022/08/12 10:44:11;;;;;;;2.50;2.15;;;29.50;82.50;;;;;;5049735;28;20256;-69
2022/08/12 10:46:44;;;;;;;4.13;2.13;;;29.30;83.00;;;;;;5049584;28;20245;-68
2022/08/12 10:49:16;;;;;;;3.30;2.03;;;29.30;83.30;;;;;;5050426;28;20214;-69
2022/08/12 10:52:05;;;;;;;5.55;2.10;;;29.50;82.80;;;;;;5049804;28;20198;-69
2022/08/12 10:54:54;;;;;;;4.95;2.03;;;29.50;82.50;;;;;;5049477;28;20280;-69
2022/08/12 10:57:25;;;;;;;4.03;1.65;;;29.70;82.30;;;;;;5049816;28;20202;-69
2022/08/12 11:00:13;;;;;;;2.95;1.90;;;29.90;81.80;;;;;;5039527;28;20732;-69
2022/08/12 11:02:58;;;;;;;4.97;1.88;;;30.10;81.30;;;;;;5049857;28;20248;-69
2022/08/12 11:05:46;;;;;;;2.05;1.85;;;29.90;80.20;;;;;;5051223;28;20226;-69
2022/08/12 11:08:36;;;;;;;4.13;1.80;;;29.90;81.60;;;;;;5053513;28;20198;-69
2022/08/12 11:11:13;;;;;;;2.42;1.90;;;29.80;80.50;;;;;;5049664;28;20197;-69
2022/08/12 11:13:45;;;;;;;4.28;1.98;;;29.70;80.70;;;;;;5049156;28;20264;-69
2022/08/12 11:16:16;;;;;;;3.17;1.85;;;29.60;80.80;;;;;;5049308;28;20333;-69
2022/08/12 11:18:49;;;;;;;2.33;1.85;;;29.70;80.70;;;;;;5032473;28;20268;-69
2022/08/12 11:21:21;;;;;;;4.55;1.80;;;29.70;80.10;;;;;;5049316;28;20534;-69
2022/08/12 11:24:08;;;;;;;2.95;1.83;;;29.80;80.40;;;;;;5048851;28;20584;-69
2022/08/12 11:26:55;;;;;;;2.85;1.90;;;29.80;80.00;;;;;;5049048;28;20218;-69
2022/08/12 11:29:28;;;;;;;2.72;1.70;;;30.00;80.10;;;;;;5049386;28;20191;-70
2022/08/12 11:32:15;;;;;;;4.75;2.00;;;29.90;80.30;;;;;;5049397;28;20199;-67
2022/08/12 11:34:42;;;;;;;3.92;1.92;;;30.20;79.90;;;;;;5066559;28;20197;-69
2022/08/12 11:37:19;;;;;;;5.13;2.08;;;30.30;79.80;;;;;;5069347;28;20194;-69
2022/08/12 11:39:51;;;;;;;8.40;2.10;;;30.00;80.60;;;;;;5069006;28;20198;-69
2022/08/12 11:42:35;;;;;;;2.28;1.90;;;30.20;80.30;;;;;;5056624;28;20217;-69
2022/08/12 11:45:13;;;;;;;1.92;1.73;;;30.10;79.90;;;;;;5052381;28;20226;-69
2022/08/12 11:47:43;;;;;;;3.20;2.00;;;30.40;80.40;;;;;;5070514;28;20706;-69
2022/08/12 11:50:10;;;;;;;4.97;2.25;;;30.60;79.70;;;;;;5070817;28;20663;-69
2022/08/12 11:52:46;;;;;;;2.95;1.88;;;30.60;80.10;;;;;;5052769;28;20224;-68
2022/08/12 11:55:33;;;;;;;4.10;1.90;;;30.50;79.20;;;;;;5037495;28;20223;-68
2022/08/12 11:58:12;;;;;;;2.25;2.00;;;30.30;79.60;;;;;;5052601;28;20194;-70
2022/08/12 12:00:59;;;;;;;6.30;2.20;;;30.00;80.50;;;;;;5052486;28;20256;-70
2022/08/12 12:03:45;;;;;;;2.97;2.00;;;30.20;80.90;;;;;;5051798;28;20198;-70
2022/08/12 12:06:16;;;;;;;4.90;1.98;;;30.50;80.00;;;;;;5051830;28;20218;-69
2022/08/12 12:08:44;;;;;;;3.78;1.88;;;30.60;79.30;;;;;;5052640;28;20195;-69
2022/08/12 12:11:18;;;;;;;4.03;1.98;;;30.80;79.30;;;;;;5052433;28;20198;-69
2022/08/12 12:13:46;;;;;;;5.38;2.00;;;30.60;78.70;;;;;;5052012;28;20286;-69
2022/08/12 12:16:32;;;;;;;2.40;1.70;;;30.70;78.40;;;;;;5051999;28;20234;-68
2022/08/12 12:19:07;;;;;;;2.38;1.83;;;30.80;78.90;;;;;;5052249;28;20195;-68
2022/08/12 12:21:34;;;;;;;2.10;1.80;;;30.90;79.30;;;;;;5052186;28;20202;-69
2022/08/12 12:24:17;;;;;;;3.53;1.90;;;30.90;78.50;;;;;;5051830;28;20574;-68
2022/08/12 12:26:51;;;;;;;5.13;2.00;;;30.90;77.10;;;;;;5051518;28;20599;-68
2022/08/12 12:29:28;;;;;;;2.35;1.83;;;30.90;77.30;;;;;;5051938;28;20257;-69
2022/08/12 12:32:14;;;;;;;1.88;1.67;;;30.90;77.10;;;;;;5051635;28;20650;-69
2022/08/12 12:34:41;;;;;;;3.42;2.00;;;30.90;76.90;;;;;;5050941;28;20705;-69
2022/08/12 12:37:27;;;;;;;5.05;1.80;;;30.80;76.70;;;;;;5051775;28;20621;-69
2022/08/12 12:40:14;;;;;;;2.83;1.80;;;31.00;76.90;;;;;;5051807;28;20203;-69
2022/08/12 12:42:42;;;;;;;3.67;1.90;;;31.00;76.90;;;;;;5051155;28;20200;-70
2022/08/12 12:45:29;;;;;;;3.35;1.88;;;31.10;76.50;;;;;;5051047;28;20223;-69
2022/08/12 12:48:01;;;;;;;3.08;1.67;;;31.20;76.20;;;;;;5051410;28;20256;-69
2022/08/12 12:50:40;;;;;;;4.25;1.85;;;31.40;76.40;;;;;;5051295;28;20203;-69
2022/08/12 12:53:14;;;;;;;9.00;2.03;;;31.50;75.50;;;;;;5039079;28;20190;-69
2022/08/12 12:56:01;;;;;;;2.92;1.67;;;31.60;75.50;;;;;;5056346;28;20279;-68
2022/08/12 12:58:28;;;;;;;1.73;1.63;;;31.30;75.60;;;;;;5053749;28;20244;-69
2022/08/12 13:00:58;;;;;;;5.03;1.70;;;31.30;75.80;;;;;;5056147;28;20203;-69
2022/08/12 13:03:32;;;;;;;1.98;1.50;;;31.10;75.10;;;;;;5051411;28;20305;-69
2022/08/12 13:06:15;;;;;;;2.35;1.60;;;30.90;75.50;;;;;;5050871;28;20347;-69
2022/08/12 13:08:44;;;;;;;4.03;2.00;;;30.90;76.30;;;;;;5050985;28;20621;-69
2022/08/12 13:11:12;;;;;;;3.40;1.95;;;31.00;75.60;;;;;;5051320;28;20240;-69
2022/08/12 13:13:41;;;;;;;5.97;2.00;;;31.10;75.20;;;;;;5050992;28;20214;-68
2022/08/12 13:16:28;;;;;;;3.25;1.50;;;31.20;75.50;;;;;;5050593;28;20230;-69
2022/08/12 13:18:56;;;;;;;4.22;1.52;;;31.30;74.60;;;;;;5056461;28;20232;-69
2022/08/12 13:21:29;;;;;;;1.73;1.55;;;31.40;74.60;;;;;;5051173;28;20298;-68
2022/08/12 13:24:02;;;;;;;2.25;1.58;;;31.70;74.90;;;;;;5062956;28;20422;-70
2022/08/12 13:26:38;;;;;;;2.55;1.80;;;31.90;73.70;;;;;;5070613;28;20224;-69
2022/08/12 13:29:05;;;;;;;4.03;1.70;;;31.90;73.50;;;;;;5050650;28;20221;-70
2022/08/12 13:31:37;;;;;;;4.00;1.52;;;31.90;72.30;;;;;;5034154;28;20191;-69
2022/08/12 13:34:24;;;;;;;3.88;1.45;;;31.90;73.30;;;;;;5050798;28;20191;-69
2022/08/12 13:37:04;;;;;;;4.70;1.48;;;31.70;70.90;;;;;;5050478;28;20667;-69
2022/08/12 13:39:35;;;;;;;4.32;1.60;;;31.50;72.70;;;;;;5033432;28;20200;-68
2022/08/12 13:42:05;;;;;;;3.80;1.67;;;31.70;72.90;;;;;;5050519;28;20195;-69
2022/08/12 13:44:40;;;;;;;2.60;1.60;;;31.80;72.90;;;;;;5050240;28;20276;-69
2022/08/12 13:47:07;;;;;;;2.10;1.58;;;31.70;72.90;;;;;;5050287;28;20856;-69
2022/08/12 13:49:45;;;;;;;4.38;1.73;;;31.70;72.70;;;;;;5050281;28;20567;-68
2022/08/12 13:52:22;;;;;;;2.20;1.65;;;31.70;73.00;;;;;;5050254;28;20207;-70
2022/08/12 13:54:48;;;;;;;2.25;1.60;;;31.90;71.60;;;;;;5049826;28;20713;-69
2022/08/12 13:57:25;;;;;;;2.13;1.33;;;32.00;71.90;;;;;;5064670;28;20190;-69
2022/08/12 13:59:53;;;;;;;4.20;1.67;;;31.90;71.70;;;;;;5070310;28;20198;-69
2022/08/12 14:02:21;;;;;;;2.63;1.50;;;31.90;72.40;;;;;;5060538;28;20193;-69
2022/08/12 14:04:49;;;;;;;2.58;1.40;;;31.70;71.70;;;;;;5049368;28;20195;-69
2022/08/12 14:07:23;;;;;;;4.90;1.33;;;31.50;72.60;;;;;;5050908;28;20291;-69
2022/08/12 14:12:43;;;;;;;3.80;1.58;;;31.60;71.90;;;;;;5050050;28;20215;-68
2022/08/12 14:15:19;;;;;;;3.15;1.73;;;31.60;73.20;;;;;;5055612;28;20301;-69
2022/08/12 14:18:22;;;;;;;2.10;1.80;;;31.70;73.20;;;;;;5049509;28;20202;-69
2022/08/12 14:21:00;;;;;;;3.30;1.63;;;31.90;73.00;;;;;;5049784;28;20186;-69
2022/08/12 14:23:32;;;;;;;3.03;1.50;;;31.90;72.20;;;;;;5050007;28;20703;-68
2022/08/12 14:26:24;;;;;;;3.47;1.40;;;32.10;72.50;;;;;;5049527;28;20215;-69
2022/08/12 14:28:54;;;;;;;4.65;1.85;;;32.20;72.90;;;;;;5057169;28;20198;-69
2022/08/12 14:31:23;;;;;;;2.70;1.40;;;32.30;72.40;;;;;;5049957;28;20210;-69
2022/08/12 14:33:58;;;;;;;1.73;1.40;;;32.30;72.40;;;;;;5049600;28;20194;-69
2022/08/12 14:36:25;;;;;;;2.05;1.70;;;32.50;72.70;;;;;;5049414;28;20298;-69
2022/08/12 14:38:53;;;;;;;3.88;1.70;;;32.70;72.40;;;;;;5050788;28;20255;-69
2022/08/12 14:41:22;;;;;;;2.88;1.60;;;32.80;71.90;;;;;;5069585;28;20205;-69
2022/08/12 14:44:02;;;;;;;4.20;1.40;;;32.80;71.80;;;;;;5067343;28;20611;-69
2022/08/12 14:46:56;;;;;;;2.25;1.52;;;32.80;71.50;;;;;;5049181;28;20656;-68
2022/08/12 14:49:24;;;;;;;4.38;1.60;;;32.20;72.60;;;;;;5049862;28;20191;-69
2022/08/12 14:52:11;;;;;;;1.65;1.55;;;32.00;72.50;;;;;;5050094;28;20198;-68
2022/08/12 14:54:58;;;;;;;2.58;1.73;;;31.50;73.10;;;;;;5049677;28;20542;-68
2022/08/12 14:57:55;;;;;;;3.17;1.50;;;31.40;73.50;;;;;;5049366;28;20601;-69
2022/08/12 15:03:26;;;;;;;1.92;1.70;;;31.30;73.80;;;;;;5049672;28;20199;-69
2022/08/12 15:06:14;;;;;;;2.33;1.80;;;31.40;74.00;;;;;;5049179;28;20218;-69
2022/08/12 15:09:01;;;;;;;3.42;1.73;;;31.70;74.40;;;;;;5049340;28;20727;-69
2022/08/12 15:11:27;;;;;;;3.53;1.80;;;31.90;73.90;;;;;;5033948;28;20221;-70
2022/08/12 15:14:14;;;;;;;2.55;1.75;;;32.10;74.30;;;;;;5049602;28;20199;-69
2022/08/12 15:16:44;;;;;;;2.85;1.80;;;32.30;74.20;;;;;;5052393;28;20222;-70
2022/08/12 15:19:11;;;;;;;3.08;1.60;;;32.50;73.40;;;;;;5053203;28;20257;-69
2022/08/12 15:21:57;;;;;;;3.03;1.77;;;32.70;72.80;;;;;;5053224;28;20616;-69
2022/08/12 15:24:44;;;;;;;2.10;1.60;;;32.80;72.80;;;;;;5052946;28;20203;-69
2022/08/12 15:27:11;;;;;;;3.92;1.70;;;32.80;72.40;;;;;;5052917;28;20215;-70